Погода Старченскийна неделю

Ростовская область, Россия

17 - 23 июня
  • 17июня
    Сегодня
    +18°
    +31°
    Ясно и безоблачно
    ВремяПогодаТемператураВлажностьДавлениеВетер, м/сВероятность осадков
    00:00Ясно и безоблачно+21°C71 %748 мм3.2 м/с2 %
    03:00Практически безоблачно+19°C81 %748 мм1.9 м/с2 %
    06:00Ясно и безоблачно+20°C83 %749 мм2.8 м/с1 %
    09:00Ясно и безоблачно+24°C60 %750 мм2.9 м/с2 %
    12:00Ясно и безоблачно+29°C45 %749 мм4.1 м/с6 %
    15:00Ясно и безоблачно+29°C37 %749 мм4.0 м/с4 %
    18:00Ясно и безоблачно+30°C37 %749 мм4.2 м/с4 %
    21:00Ясно и безоблачно+24°C57 %750 мм2.8 м/с2 %
  • 18июня
    Вторник
    +20°
    +31°
    Практически безоблачно
    ВремяПогодаТемператураВлажностьДавлениеВетер, м/сВероятность осадков
    00:00Ясно и безоблачно+21°C71 %750 мм3.5 м/с2 %
    03:00Практически безоблачно+19°C88 %750 мм1.6 м/с2 %
    06:00Ясно и безоблачно+21°C85 %751 мм1.7 м/с2 %
    09:00Практически безоблачно+25°C62 %751 мм3.3 м/с4 %
    12:00Практически безоблачно+29°C53 %751 мм3.7 м/с19 %
    15:00Практически безоблачно+29°C43 %751 мм3.2 м/с3 %
    18:00Практически безоблачно+30°C45 %750 мм3.1 м/с5 %
    21:00Ясно и безоблачно+25°C55 %751 мм2.7 м/с2 %
  • 19июня
    Среда
    +20°
    +32°
    Практически безоблачно
    ВремяПогодаТемператураВлажностьДавлениеВетер, м/сВероятность осадков
    00:00Ясно и безоблачно+22°C70 %751 мм2.5 м/с2 %
    03:00Ясно и безоблачно+21°C82 %751 мм2.6 м/с2 %
    06:00Ясно и безоблачно+22°C79 %752 мм1.7 м/с2 %
    09:00Ясно и безоблачно+27°C50 %752 мм0.8 м/с2 %
    12:00Ясно и безоблачно+31°C41 %752 мм1.6 м/с6 %
    15:00Практически безоблачно+30°C33 %751 мм2.9 м/с2 %
    18:00Ясно и безоблачно+32°C34 %751 мм3.1 м/с2 %
    21:00Ясно и безоблачно+27°C48 %751 мм1.6 м/с2 %
  • 20июня
    Четверг
    +20°
    +34°
    Ясно и безоблачно
    ВремяПогодаТемператураВлажностьДавлениеВетер, м/сВероятность осадков
    00:00Ясно и безоблачно+23°C59 %751 мм2.1 м/с2 %
    03:00Ясно и безоблачно+21°C59 %751 мм2.9 м/с2 %
    06:00Ясно и безоблачно+23°C60 %751 мм2.9 м/с2 %
    09:00Ясно и безоблачно+29°C40 %751 мм2.1 м/с2 %
    12:00Ясно и безоблачно+33°C31 %750 мм0.9 м/с2 %
    15:00Ясно и безоблачно+32°C28 %748 мм0.5 м/с2 %
    18:00Ясно и безоблачно+34°C26 %747 мм2.7 м/с2 %
    21:00Ясно и безоблачно+28°C35 %747 мм3.2 м/с2 %
  • 21июня
    Пятница
    +17°
    +28°
    Ясно и безоблачно
    ВремяПогодаТемператураВлажностьДавлениеВетер, м/сВероятность осадков
    00:00Ясно и безоблачно+24°C43 %747 мм3.2 м/с2 %
    03:00Ясно и безоблачно+23°C64 %746 мм4.8 м/с2 %
    06:00Ясно и безоблачно+20°C58 %748 мм6.4 м/с2 %
    09:00Ясно и безоблачно+23°C45 %748 мм5.1 м/с5 %
    12:00Ясно и безоблачно+26°C27 %748 мм5.9 м/с26 %
    15:00Ясно и безоблачно+27°C28 %747 мм6.8 м/с21 %
    18:00Небольшая облачность+28°C28 %746 мм7.1 м/с9 %
    21:00Облачно с прояснениями+23°C33 %747 мм4.4 м/с2 %
Мы используем cookies
Соглашаюсь